Terminal Aerodrome Forecast
Issued by NWS Albany, NY

Home | Current Version | Previous Version | Text Only | Print | Product List | Glossary On
Versions: 1 2 3 4 5 6 7 8 9 10 11 12 13 14 15 16 17 18 19 20 21 22 23 24 25
000
FTUS41 KALY 311700
TAFGFL
TAF
KGFL 311733Z 3118/0118 22005KT P6SM VCSH BKN050
     FM312200 22005KT P6SM SCT060
     FM010300 00000KT 4SM BR SCT250
     FM010600 00000KT 2SM BR SCT008 SCT250
     FM011100 19005KT P6SM SCT040=

USA.gov is the U.S. government's official web portal to all federal, state and local government web resources and services.